Time;durP1;ratioP1;P1;durP2;ratioP2;P2;SDS_P1;SDS_P2;PMS_P1;PMS_P2;Temp;Humidity;BMP_temperature;BMP_pressure;BME280_temperature;BME280_humidity;BME280_pressure;Samples;Min_cycle;Max_cycle;Signal;HPM_P1;HPM_P2
2023/04/18 00:00:28;;;;;;;13.60;10.67;;;10.50;99.90;;;;;;5076447;28;20963;-90
2023/04/18 00:03:14;;;;;;;12.17;9.27;;;10.50;99.90;;;;;;5074056;28;20456;-89
2023/04/18 00:06:01;;;;;;;16.03;9.83;;;10.50;99.90;;;;;;5074584;28;20515;-90
2023/04/18 00:08:46;;;;;;;13.30;9.40;;;10.50;99.90;;;;;;5083229;28;20463;-90
2023/04/18 00:11:34;;;;;;;12.00;8.70;;;10.50;99.90;;;;;;5078921;28;20486;-90
2023/04/18 00:14:20;;;;;;;12.40;9.80;;;10.40;99.90;;;;;;5082616;28;20453;-90
2023/04/18 00:17:07;;;;;;;19.33;9.93;;;10.40;99.90;;;;;;5082644;28;20416;-90
2023/04/18 00:19:53;;;;;;;14.33;10.00;;;10.50;99.90;;;;;;5077601;28;20604;-91
2023/04/18 00:22:41;;;;;;;12.93;10.37;;;10.40;99.90;;;;;;5079479;28;20460;-90
2023/04/18 00:25:27;;;;;;;15.03;10.90;;;10.40;99.90;;;;;;5081233;28;20460;-90
2023/04/18 00:28:14;;;;;;;13.20;9.57;;;10.30;99.90;;;;;;5078412;28;20465;-90
2023/04/18 00:30:59;;;;;;;14.40;9.77;;;10.30;99.90;;;;;;5077291;28;20793;-90
2023/04/18 00:33:45;;;;;;;18.63;10.20;;;10.20;99.90;;;;;;5078701;28;20525;-91
2023/04/18 00:36:30;;;;;;;13.83;9.90;;;10.20;99.90;;;;;;5083145;28;20439;-90
2023/04/18 00:39:16;;;;;;;13.40;11.10;;;10.10;99.90;;;;;;5077760;28;20481;-91
2023/04/18 00:42:02;;;;;;;16.30;10.80;;;10.10;99.90;;;;;;5075123;28;20517;-91
2023/04/18 00:44:49;;;;;;;13.80;10.93;;;10.10;99.90;;;;;;5079075;28;20486;-91
2023/04/18 00:47:35;;;;;;;14.40;10.93;;;10.10;99.90;;;;;;5078271;28;20470;-91
2023/04/18 00:50:21;;;;;;;14.97;10.60;;;10.10;99.90;;;;;;5080335;28;21103;-90
2023/04/18 00:53:07;;;;;;;15.80;12.07;;;10.00;99.90;;;;;;5077916;28;20475;-90
2023/04/18 00:55:53;;;;;;;13.87;10.63;;;10.10;99.90;;;;;;5085533;28;20442;-90
2023/04/18 00:58:39;;;;;;;13.40;10.80;;;10.00;99.90;;;;;;5074520;28;20476;-89
2023/04/18 01:01:26;;;;;;;14.40;10.93;;;10.00;99.90;;;;;;5079614;28;20489;-91
2023/04/18 01:04:12;;;;;;;13.87;10.70;;;10.00;99.90;;;;;;5075033;28;20463;-91
2023/04/18 01:06:58;;;;;;;15.73;11.97;;;9.90;99.90;;;;;;5077759;28;20441;-91
2023/04/18 01:09:44;;;;;;;17.10;10.67;;;9.90;99.90;;;;;;5078852;28;20566;-90
2023/04/18 01:12:30;;;;;;;15.60;10.87;;;9.90;99.90;;;;;;5077221;28;20453;-91
2023/04/18 01:15:16;;;;;;;15.40;12.17;;;9.80;99.90;;;;;;5080548;28;20435;-91
2023/04/18 01:18:03;;;;;;;13.37;10.10;;;9.80;99.90;;;;;;5082204;28;20477;-90
2023/04/18 01:20:50;;;;;;;21.43;11.80;;;9.80;99.90;;;;;;5082509;28;20450;-91
2023/04/18 01:23:36;;;;;;;15.00;10.53;;;9.70;99.90;;;;;;5082818;28;20409;-91
2023/04/18 01:26:23;;;;;;;13.90;10.30;;;9.70;99.90;;;;;;5081075;28;20534;-91
2023/04/18 01:29:09;;;;;;;17.33;10.13;;;9.70;99.90;;;;;;5078216;28;20533;-91
2023/04/18 01:31:54;;;;;;;17.17;10.63;;;9.70;99.90;;;;;;5077821;28;20565;-91
2023/04/18 01:34:40;;;;;;;13.43;10.80;;;9.70;99.90;;;;;;5079451;28;21034;-91
2023/04/18 01:37:26;;;;;;;13.20;9.93;;;9.60;99.90;;;;;;5087033;28;20462;-90
2023/04/18 01:40:12;;;;;;;17.90;11.67;;;9.60;99.90;;;;;;5074591;28;20432;-90
2023/04/18 01:42:59;;;;;;;17.63;10.37;;;9.50;99.90;;;;;;5081657;28;20444;-91
2023/04/18 01:45:45;;;;;;;14.13;10.40;;;9.40;99.90;;;;;;5076732;28;20478;-90
2023/04/18 01:48:31;;;;;;;14.00;10.97;;;9.30;99.90;;;;;;5085707;28;21287;-91
2023/04/18 01:51:17;;;;;;;19.40;11.07;;;9.20;99.90;;;;;;5082834;28;20993;-91
2023/04/18 01:54:03;;;;;;;19.17;10.60;;;9.20;99.90;;;;;;5078047;28;20515;-91
2023/04/18 01:56:48;;;;;;;12.83;10.83;;;9.10;99.90;;;;;;5081149;28;20931;-90
2023/04/18 01:59:35;;;;;;;19.90;11.77;;;9.10;99.90;;;;;;5079226;28;20615;-91
2023/04/18 02:02:21;;;;;;;13.63;10.40;;;9.10;99.90;;;;;;5080931;28;20455;-91
2023/04/18 02:05:08;;;;;;;13.90;11.00;;;9.10;99.90;;;;;;5087756;28;20816;-91
2023/04/18 02:07:53;;;;;;;14.40;10.73;;;9.10;99.90;;;;;;5082877;28;20535;-91
2023/04/18 02:10:39;;;;;;;17.20;11.37;;;9.10;99.90;;;;;;5084718;28;20554;-91
2023/04/18 02:13:25;;;;;;;14.00;9.67;;;9.10;99.90;;;;;;5077566;28;20491;-91
2023/04/18 02:16:13;;;;;;;15.33;12.07;;;9.10;99.90;;;;;;5080574;28;20602;-90
2023/04/18 02:18:59;;;;;;;14.97;10.13;;;9.10;99.90;;;;;;5082598;28;20463;-91
2023/04/18 02:21:44;;;;;;;18.70;12.40;;;9.10;99.90;;;;;;5079920;28;20457;-90
2023/04/18 02:24:31;;;;;;;14.00;11.07;;;9.10;99.90;;;;;;5082990;28;20571;-91
2023/04/18 02:27:18;;;;;;;14.87;10.97;;;9.10;99.90;;;;;;5082618;28;20434;-90
2023/04/18 02:30:04;;;;;;;15.60;11.37;;;9.10;99.90;;;;;;5083133;28;20793;-91
2023/04/18 02:32:52;;;;;;;11.93;9.90;;;9.10;99.90;;;;;;5083051;28;20819;-91
2023/04/18 02:35:38;;;;;;;14.07;10.10;;;9.20;99.90;;;;;;5079971;28;20588;-91
2023/04/18 02:38:24;;;;;;;16.17;10.93;;;9.20;99.90;;;;;;5083491;28;20479;-91
2023/04/18 02:41:13;;;;;;;15.00;10.70;;;9.20;99.90;;;;;;5086993;28;20451;-91
2023/04/18 02:43:59;;;;;;;11.63;10.23;;;9.30;99.90;;;;;;5085138;28;20803;-91
2023/04/18 02:46:45;;;;;;;16.67;10.80;;;9.20;99.90;;;;;;5084402;28;20986;-90
2023/04/18 02:49:32;;;;;;;17.03;12.50;;;9.20;99.90;;;;;;5080628;28;20562;-90
2023/04/18 02:52:18;;;;;;;16.30;11.57;;;9.30;99.90;;;;;;5085105;28;20816;-90
2023/04/18 02:55:04;;;;;;;17.90;11.20;;;9.30;99.90;;;;;;5083024;28;20433;-91
2023/04/18 02:57:50;;;;;;;16.57;11.30;;;9.30;99.90;;;;;;5083721;28;20566;-90
2023/04/18 03:00:36;;;;;;;15.40;11.13;;;9.30;99.90;;;;;;5081531;28;20431;-91
2023/04/18 03:03:22;;;;;;;15.30;11.57;;;9.30;99.90;;;;;;5085401;28;20414;-91
2023/04/18 03:06:09;;;;;;;17.33;11.50;;;9.30;99.90;;;;;;5083358;28;20440;-91
2023/04/18 03:08:55;;;;;;;15.77;11.67;;;9.30;99.90;;;;;;5085908;28;20519;-91
2023/04/18 03:11:41;;;;;;;14.07;10.97;;;9.30;99.90;;;;;;5077702;28;20808;-91
2023/04/18 03:14:27;;;;;;;14.07;11.60;;;9.20;99.90;;;;;;5084434;28;20437;-91
2023/04/18 03:17:12;;;;;;;15.97;12.23;;;9.20;99.90;;;;;;5085650;28;20806;-90
2023/04/18 03:19:58;;;;;;;14.87;12.70;;;9.20;99.90;;;;;;5085107;28;20513;-91
2023/04/18 03:22:45;;;;;;;14.63;11.23;;;9.20;99.90;;;;;;5087555;28;20587;-91
2023/04/18 03:25:42;;;;;;;19.53;13.37;;;9.10;99.90;;;;;;5087380;28;20420;-90
2023/04/18 03:28:28;;;;;;;14.00;10.90;;;9.00;99.90;;;;;;5077443;28;20477;-90
2023/04/18 03:31:13;;;;;;;16.90;12.97;;;9.00;99.90;;;;;;5083890;28;20932;-91
2023/04/18 03:33:59;;;;;;;19.50;13.03;;;8.90;99.90;;;;;;5085141;28;20410;-91
2023/04/18 03:36:45;;;;;;;20.53;13.60;;;8.80;99.90;;;;;;5079491;28;20456;-91
2023/04/18 03:39:32;;;;;;;15.40;10.80;;;8.80;99.90;;;;;;5086240;28;20466;-90
2023/04/18 03:42:18;;;;;;;16.80;12.87;;;8.70;99.90;;;;;;5084160;28;20406;-91
2023/04/18 03:45:04;;;;;;;17.60;11.30;;;8.60;99.90;;;;;;5079274;28;20517;-91
2023/04/18 03:47:49;;;;;;;16.93;12.63;;;8.60;99.90;;;;;;5082619;28;20536;-90
2023/04/18 03:50:35;;;;;;;16.17;13.10;;;8.70;99.90;;;;;;5077931;28;20450;-90
2023/04/18 03:53:21;;;;;;;16.87;13.10;;;8.70;99.90;;;;;;5079076;28;20488;-91
2023/04/18 03:56:08;;;;;;;15.73;12.57;;;8.80;99.90;;;;;;5081837;28;20436;-90
2023/04/18 03:58:54;;;;;;;20.73;13.63;;;8.80;99.90;;;;;;5081788;28;20457;-90
2023/04/18 04:01:40;;;;;;;19.20;14.10;;;8.80;99.90;;;;;;5082099;28;20437;-90
2023/04/18 04:04:26;;;;;;;16.87;12.90;;;8.70;99.90;;;;;;5081265;28;20447;-91
2023/04/18 04:07:11;;;;;;;17.70;13.07;;;8.70;99.90;;;;;;5077924;28;20446;-91
2023/04/18 04:09:57;;;;;;;17.63;13.20;;;8.70;99.90;;;;;;5077914;28;20443;-90
2023/04/18 04:12:45;;;;;;;18.20;13.77;;;8.80;99.90;;;;;;5085043;28;20455;-90
2023/04/18 04:15:31;;;;;;;15.37;13.20;;;8.80;99.90;;;;;;5076312;28;20445;-91
2023/04/18 04:18:17;;;;;;;16.40;14.27;;;8.80;99.90;;;;;;5074418;28;21186;-91
2023/04/18 04:21:04;;;;;;;19.43;13.87;;;8.80;99.90;;;;;;5077817;28;20441;-91
2023/04/18 04:23:49;;;;;;;16.47;13.20;;;8.80;99.90;;;;;;5080808;28;20452;-90
2023/04/18 04:26:35;;;;;;;20.27;13.53;;;8.70;99.90;;;;;;5081662;28;20453;-90
2023/04/18 04:29:22;;;;;;;21.77;13.90;;;8.70;99.90;;;;;;5083665;28;20510;-90
2023/04/18 04:32:08;;;;;;;16.43;12.90;;;8.70;99.90;;;;;;5072811;28;20468;-90
2023/04/18 04:34:55;;;;;;;21.03;13.93;;;8.70;99.90;;;;;;5080955;28;20943;-91
2023/04/18 04:37:42;;;;;;;18.87;13.20;;;8.70;99.90;;;;;;5079147;28;20505;-90
2023/04/18 04:40:28;;;;;;;17.70;12.67;;;8.70;99.90;;;;;;5081176;28;20907;-90
2023/04/18 04:43:14;;;;;;;15.43;13.20;;;8.80;99.90;;;;;;5077606;28;20455;-90
2023/04/18 04:46:02;;;;;;;17.03;13.37;;;8.70;99.90;;;;;;5083818;28;21007;-90
2023/04/18 04:48:48;;;;;;;17.80;12.80;;;8.70;99.90;;;;;;5082811;28;20471;-90
2023/04/18 04:51:34;;;;;;;15.07;12.73;;;8.70;99.90;;;;;;5083331;28;20532;-89
2023/04/18 04:54:20;;;;;;;17.30;13.43;;;8.70;99.90;;;;;;5086315;28;20446;-90
2023/04/18 04:57:06;;;;;;;20.27;13.90;;;8.70;99.90;;;;;;5082111;28;20630;-90
2023/04/18 04:59:52;;;;;;;19.37;13.43;;;8.70;99.90;;;;;;5085060;28;20946;-90
2023/04/18 05:02:39;;;;;;;16.50;13.30;;;8.80;99.90;;;;;;5088283;28;20490;-91
2023/04/18 05:05:33;;;;;;;18.50;13.43;;;8.80;99.90;;;;;;5080652;28;20452;-90
2023/04/18 05:08:19;;;;;;;19.10;13.53;;;8.80;99.90;;;;;;5080774;28;20470;-90
2023/04/18 05:11:06;;;;;;;17.27;12.80;;;8.80;99.90;;;;;;5083112;28;20442;-89
2023/04/18 05:13:51;;;;;;;18.17;13.27;;;8.80;99.90;;;;;;5078206;28;20427;-89
2023/04/18 05:16:37;;;;;;;18.23;13.00;;;8.80;99.90;;;;;;5079337;28;20448;-90
2023/04/18 05:19:24;;;;;;;18.60;13.73;;;8.80;99.90;;;;;;5072353;28;21054;-90
2023/04/18 05:22:10;;;;;;;15.50;13.40;;;8.80;99.90;;;;;;5078406;28;20432;-90
2023/04/18 05:24:56;;;;;;;17.10;13.67;;;8.80;99.90;;;;;;5080598;28;20525;-89
2023/04/18 05:27:42;;;;;;;14.73;12.33;;;8.80;99.90;;;;;;5084701;28;20468;-90
2023/04/18 05:30:28;;;;;;;20.53;13.77;;;8.90;99.90;;;;;;5087492;28;20462;-91
2023/04/18 05:33:14;;;;;;;20.43;13.40;;;8.90;99.90;;;;;;5085203;28;20726;-91
2023/04/18 05:36:01;;;;;;;16.37;12.40;;;8.90;99.90;;;;;;5083265;28;20414;-91
2023/04/18 05:38:47;;;;;;;15.80;12.47;;;8.80;99.90;;;;;;5087818;28;20953;-91
2023/04/18 05:41:32;;;;;;;15.47;12.93;;;8.80;99.90;;;;;;5081198;28;20459;-91
2023/04/18 05:44:18;;;;;;;19.57;14.97;;;8.80;99.90;;;;;;5080474;28;20728;-92
2023/04/18 05:47:05;;;;;;;20.30;14.47;;;8.80;99.90;;;;;;5085871;28;20801;-91
2023/04/18 05:49:51;;;;;;;16.97;13.77;;;8.80;99.90;;;;;;5092437;28;20442;-92
2023/04/18 05:52:38;;;;;;;18.73;14.27;;;8.80;99.90;;;;;;5093497;28;20549;-90
2023/04/18 05:55:24;;;;;;;19.10;13.40;;;8.90;99.90;;;;;;5085993;28;20442;-91
2023/04/18 05:58:10;;;;;;;21.67;13.98;;;8.80;99.90;;;;;;5088034;28;20459;-91
2023/04/18 06:00:56;;;;;;;17.08;13.90;;;8.80;99.90;;;;;;5079981;28;20703;-91
2023/04/18 06:03:41;;;;;;;22.53;14.43;;;8.90;99.90;;;;;;5080745;28;20681;-91
2023/04/18 06:06:27;;;;;;;18.17;13.90;;;8.90;99.90;;;;;;5082266;28;20555;-91
2023/04/18 06:09:14;;;;;;;20.30;13.57;;;8.90;99.90;;;;;;5086097;28;20467;-91
2023/04/18 06:12:00;;;;;;;18.77;13.40;;;8.90;99.90;;;;;;5083524;28;20467;-91
2023/04/18 06:14:45;;;;;;;19.63;13.47;;;8.90;99.90;;;;;;5085827;28;20440;-91
2023/04/18 06:17:34;;;;;;;17.43;13.17;;;8.90;99.90;;;;;;5080112;28;20464;-90
2023/04/18 06:20:21;;;;;;;19.30;14.43;;;8.90;99.90;;;;;;5084820;28;20437;-91
2023/04/18 06:23:07;;;;;;;18.60;14.50;;;8.90;99.90;;;;;;5086574;28;20801;-90
2023/04/18 06:25:54;;;;;;;21.70;15.33;;;9.00;99.90;;;;;;5079151;28;20548;-91
2023/04/18 06:28:40;;;;;;;18.80;15.07;;;8.90;99.90;;;;;;5086385;28;20534;-91
2023/04/18 06:31:26;;;;;;;20.90;14.77;;;8.90;99.90;;;;;;5076426;28;21033;-91
2023/04/18 06:34:12;;;;;;;18.50;12.63;;;8.90;99.90;;;;;;5085985;28;20450;-90
2023/04/18 06:36:59;;;;;;;17.73;13.73;;;8.90;99.90;;;;;;5086343;28;20440;-90
2023/04/18 06:39:44;;;;;;;18.33;13.70;;;8.90;99.90;;;;;;5083256;28;20866;-90
2023/04/18 06:42:32;;;;;;;19.27;14.17;;;9.00;99.90;;;;;;5079246;28;20438;-90
2023/04/18 06:45:18;;;;;;;22.33;15.50;;;9.00;99.90;;;;;;5079749;28;20504;-90
2023/04/18 06:48:04;;;;;;;17.23;13.70;;;9.10;99.90;;;;;;5079767;28;20818;-92
2023/04/18 06:50:50;;;;;;;20.93;14.77;;;9.10;99.90;;;;;;5077943;28;20566;-91
2023/04/18 06:53:36;;;;;;;17.20;12.87;;;9.10;99.90;;;;;;5084967;28;20545;-90
2023/04/18 06:56:21;;;;;;;18.87;14.90;;;9.20;99.90;;;;;;5082982;28;20444;-90
2023/04/18 06:59:08;;;;;;;20.20;12.60;;;9.30;99.90;;;;;;5082724;28;20462;-90
2023/04/18 07:01:54;;;;;;;19.17;12.63;;;9.30;99.90;;;;;;5079239;28;20508;-90
2023/04/18 07:04:41;;;;;;;19.63;12.93;;;9.30;99.90;;;;;;5086324;28;20490;-90
2023/04/18 07:07:27;;;;;;;21.07;14.03;;;9.30;99.90;;;;;;5080682;28;20420;-90
2023/04/18 07:10:13;;;;;;;16.83;12.40;;;9.40;99.90;;;;;;5081542;28;20449;-90
2023/04/18 07:12:59;;;;;;;17.23;13.17;;;9.50;99.90;;;;;;5080208;28;20563;-90
2023/04/18 07:15:46;;;;;;;18.30;13.20;;;9.50;99.90;;;;;;5084655;28;20985;-90
2023/04/18 07:18:32;;;;;;;22.70;14.57;;;9.50;99.90;;;;;;5083249;28;20477;-90
2023/04/18 07:21:18;;;;;;;17.97;13.37;;;9.50;99.90;;;;;;5078380;28;21056;-90
2023/04/18 07:24:04;;;;;;;21.70;12.30;;;9.50;99.90;;;;;;5077172;28;20439;-90
2023/04/18 07:26:50;;;;;;;19.33;13.07;;;9.50;99.90;;;;;;5083611;28;20431;-89
2023/04/18 07:29:36;;;;;;;19.63;14.00;;;9.50;99.90;;;;;;5076424;28;20468;-91
2023/04/18 07:32:23;;;;;;;17.60;12.33;;;9.50;99.90;;;;;;5079339;28;20510;-90
2023/04/18 07:35:09;;;;;;;17.10;12.63;;;9.50;99.90;;;;;;5079053;28;20573;-91
2023/04/18 07:37:55;;;;;;;19.43;12.93;;;9.60;99.90;;;;;;5088075;28;20637;-91
2023/04/18 07:40:41;;;;;;;18.57;15.00;;;9.60;99.90;;;;;;5082214;28;20524;-90
2023/04/18 07:43:26;;;;;;;19.03;12.63;;;9.70;99.90;;;;;;5075226;28;20425;-91
2023/04/18 07:46:12;;;;;;;19.30;13.33;;;9.60;99.90;;;;;;5084619;28;20437;-91
2023/04/18 07:49:01;;;;;;;19.50;13.03;;;9.60;99.90;;;;;;5084295;28;20472;-91
2023/04/18 07:51:47;;;;;;;16.30;12.27;;;9.70;99.90;;;;;;5084921;28;20450;-90
2023/04/18 07:54:32;;;;;;;21.83;13.60;;;9.80;99.90;;;;;;5079032;28;20456;-91
2023/04/18 07:57:18;;;;;;;19.53;12.93;;;9.80;99.90;;;;;;5081867;28;20435;-90
2023/04/18 08:00:05;;;;;;;20.10;12.83;;;9.80;99.90;;;;;;5083310;28;20455;-90
2023/04/18 08:02:51;;;;;;;20.97;12.77;;;9.80;99.90;;;;;;5079654;28;20561;-90
2023/04/18 08:05:39;;;;;;;20.00;14.27;;;9.80;99.90;;;;;;5076782;28;20526;-90
2023/04/18 08:08:24;;;;;;;21.23;14.33;;;9.80;99.90;;;;;;5080173;28;20474;-90
2023/04/18 08:11:10;;;;;;;20.43;12.73;;;9.80;99.90;;;;;;5079303;28;20441;-91
2023/04/18 08:13:56;;;;;;;18.00;13.13;;;9.90;99.90;;;;;;5079271;28;20541;-90
2023/04/18 08:16:42;;;;;;;20.03;13.13;;;9.90;99.90;;;;;;5078266;28;20439;-91
2023/04/18 08:19:27;;;;;;;19.33;12.80;;;9.90;99.90;;;;;;5087645;28;20984;-89
2023/04/18 08:22:14;;;;;;;17.37;13.03;;;9.90;99.90;;;;;;5080853;28;20983;-90
2023/04/18 08:25:00;;;;;;;20.93;14.07;;;9.90;99.90;;;;;;5073850;28;20436;-91
2023/04/18 08:27:46;;;;;;;20.63;13.47;;;10.00;99.90;;;;;;5078051;28;22295;-91
2023/04/18 08:30:32;;;;;;;18.63;13.53;;;10.00;99.90;;;;;;5096406;22;20488;-71
2023/04/18 08:33:18;;;;;;;19.53;13.70;;;10.00;99.90;;;;;;5084683;28;20492;-71
2023/04/18 08:36:04;;;;;;;21.30;13.50;;;10.00;99.90;;;;;;5079549;28;20797;-72
2023/04/18 08:38:52;;;;;;;22.23;14.50;;;10.00;99.90;;;;;;5081958;28;20450;-70
2023/04/18 08:41:38;;;;;;;18.47;13.90;;;10.10;99.90;;;;;;5083892;28;20482;-70
2023/04/18 08:44:23;;;;;;;18.40;11.93;;;10.20;99.90;;;;;;5078962;28;20502;-70
2023/04/18 08:47:09;;;;;;;16.93;11.93;;;10.30;99.90;;;;;;5084544;28;20449;-71
2023/04/18 08:49:56;;;;;;;13.87;10.70;;;10.40;99.90;;;;;;5082610;28;20905;-70
2023/04/18 08:52:46;;;;;;;15.47;11.30;;;10.40;99.90;;;;;;5081733;28;20485;-70
2023/04/18 08:55:34;;;;;;;19.07;12.80;;;10.50;99.90;;;;;;5080379;28;20517;-70
2023/04/18 08:58:22;;;;;;;17.53;12.83;;;10.60;99.90;;;;;;5084452;28;20792;-70
2023/04/18 09:01:07;;;;;;;18.97;12.90;;;10.60;99.90;;;;;;5083270;28;20804;-71
2023/04/18 09:03:53;;;;;;;19.30;12.90;;;10.60;99.90;;;;;;5078105;28;20491;-70
2023/04/18 09:06:52;;;;;;;15.43;11.90;;;10.60;99.90;;;;;;5084770;28;20461;-70
2023/04/18 09:09:42;;;;;;;16.73;11.77;;;10.70;99.90;;;;;;5083402;28;21017;-70
2023/04/18 09:12:31;;;;;;;19.00;12.60;;;10.70;99.90;;;;;;5082245;28;20816;-72
2023/04/18 09:15:19;;;;;;;18.33;12.53;;;10.80;99.90;;;;;;5085894;28;20425;-71
2023/04/18 09:18:09;;;;;;;16.80;11.80;;;10.80;99.90;;;;;;5085563;28;20514;-70
2023/04/18 09:20:55;;;;;;;17.93;12.23;;;10.80;99.90;;;;;;5085206;28;20445;-70
2023/04/18 09:23:41;;;;;;;18.37;12.50;;;10.80;99.90;;;;;;5077044;28;21068;-70
2023/04/18 09:26:35;;;;;;;15.10;11.20;;;10.80;99.90;;;;;;5080550;28;20430;-70
2023/04/18 09:29:23;;;;;;;20.07;13.73;;;10.90;99.90;;;;;;5080092;28;20460;-70
2023/04/18 09:32:08;;;;;;;19.67;12.53;;;10.90;99.90;;;;;;5078221;28;20456;-71
2023/04/18 09:34:58;;;;;;;17.53;11.10;;;10.90;99.90;;;;;;5075883;28;20457;-72
2023/04/18 09:37:50;;;;;;;16.33;10.73;;;10.90;99.90;;;;;;5080979;28;20446;-71
2023/04/18 09:40:36;;;;;;;19.40;11.80;;;10.90;99.90;;;;;;5079527;28;20439;-70
2023/04/18 09:43:22;;;;;;;13.93;11.03;;;11.00;99.90;;;;;;5079462;28;21492;-70
2023/04/18 09:46:09;;;;;;;19.67;11.53;;;11.00;99.90;;;;;;5084162;28;20415;-70
2023/04/18 09:48:55;;;;;;;16.93;10.87;;;11.10;99.90;;;;;;5087087;28;20964;-70
2023/04/18 09:51:43;;;;;;;15.03;11.03;;;11.20;99.90;;;;;;5078914;28;20455;-71
2023/04/18 09:54:32;;;;;;;16.07;10.80;;;11.30;99.90;;;;;;5078121;28;20531;-71
2023/04/18 09:57:18;;;;;;;17.67;10.80;;;11.40;99.90;;;;;;5080774;28;20461;-71
2023/04/18 10:00:12;;;;;;;16.90;10.40;;;11.50;99.90;;;;;;5080145;28;20419;-71
2023/04/18 10:03:03;;;;;;;15.70;10.10;;;11.60;99.90;;;;;;5079660;28;20460;-72
2023/04/18 10:05:50;;;;;;;12.73;9.83;;;11.80;99.90;;;;;;5083827;28;20525;-71
2023/04/18 10:08:36;;;;;;;14.50;10.00;;;11.90;99.90;;;;;;5085135;28;21253;-70
2023/04/18 10:11:23;;;;;;;15.03;10.40;;;12.00;99.90;;;;;;5079529;28;20530;-70
2023/04/18 10:14:13;;;;;;;11.37;9.43;;;12.20;99.90;;;;;;5082712;28;20477;-70
2023/04/18 10:16:59;;;;;;;16.87;10.63;;;12.30;99.90;;;;;;5096849;28;20459;-71
2023/04/18 10:19:46;;;;;;;13.20;9.63;;;12.30;99.90;;;;;;5083477;28;20447;-70
2023/04/18 10:22:34;;;;;;;14.67;9.97;;;12.40;99.90;;;;;;5083546;28;20457;-71
2023/04/18 10:25:50;;;;;;;11.80;8.70;;;12.40;99.90;;;;;;5083351;28;20481;-71
2023/04/18 10:28:53;;;;;;;12.70;9.40;;;12.50;99.90;;;;;;5079526;28;21171;-70
2023/04/18 10:31:40;;;;;;;13.10;9.23;;;12.70;99.90;;;;;;5089051;28;20451;-70
2023/04/18 10:34:25;;;;;;;12.90;8.60;;;12.70;99.90;;;;;;5082619;28;20474;-70
2023/04/18 10:37:12;;;;;;;10.67;7.50;;;12.70;99.90;;;;;;5074732;28;20594;-70
2023/04/18 10:40:04;;;;;;;10.43;8.00;;;12.80;99.90;;;;;;5081185;28;20524;-70
2023/04/18 10:42:59;;;;;;;10.27;8.13;;;12.80;99.90;;;;;;5083848;28;20992;-70
2023/04/18 10:46:05;;;;;;;11.87;8.70;;;12.90;99.90;;;;;;5082816;28;20513;-70
2023/04/18 10:49:15;;;;;;;11.57;8.53;;;12.90;99.90;;;;;;5081006;28;20979;-70
2023/04/18 10:52:02;;;;;;;10.47;7.70;;;13.00;99.90;;;;;;5083915;28;20446;-70
2023/04/18 10:54:53;;;;;;;11.30;8.47;;;13.10;99.90;;;;;;5087010;28;20523;-70
2023/04/18 10:57:43;;;;;;;11.27;8.83;;;13.40;99.90;;;;;;5086974;28;20590;-70
2023/04/18 11:00:30;;;;;;;9.97;7.83;;;13.50;99.90;;;;;;5075756;28;20809;-70
2023/04/18 11:03:15;;;;;;;10.30;7.60;;;13.80;99.90;;;;;;5087580;28;20610;-71
2023/04/18 11:06:02;;;;;;;9.00;6.93;;;14.00;99.90;;;;;;5079948;28;20450;-71
2023/04/18 11:08:49;;;;;;;12.30;7.60;;;14.10;99.90;;;;;;5080650;28;20513;-70
2023/04/18 11:11:35;;;;;;;8.60;7.00;;;14.20;99.90;;;;;;5088491;28;20457;-70
2023/04/18 11:14:21;;;;;;;10.13;6.67;;;14.10;99.90;;;;;;5083043;28;20558;-70
2023/04/18 11:17:17;;;;;;;7.60;6.30;;;14.10;99.90;;;;;;5085638;28;20395;-70
2023/04/18 11:20:07;;;;;;;8.50;6.40;;;13.90;98.80;;;;;;5082416;28;20603;-70
2023/04/18 11:22:55;;;;;;;9.40;6.97;;;13.80;99.90;;;;;;5075450;28;21035;-71
2023/04/18 11:25:43;;;;;;;9.27;7.10;;;13.90;99.90;;;;;;5087392;28;20431;-70
2023/04/18 11:28:31;;;;;;;9.03;6.17;;;14.10;99.90;;;;;;5081641;28;20448;-70
2023/04/18 11:31:16;;;;;;;7.60;6.07;;;14.30;98.70;;;;;;5078101;28;20418;-70
2023/04/18 11:34:02;;;;;;;9.27;6.30;;;14.50;94.20;;;;;;5081287;28;20457;-70
2023/04/18 11:36:52;;;;;;;8.90;6.60;;;14.50;94.50;;;;;;5078597;28;21161;-72
2023/04/18 11:39:43;;;;;;;6.63;5.73;;;14.40;93.10;;;;;;5077386;28;20416;-70
2023/04/18 11:42:32;;;;;;;9.97;6.63;;;14.40;93.90;;;;;;5083910;28;20528;-71
2023/04/18 11:45:19;;;;;;;7.47;5.77;;;14.20;91.60;;;;;;5081279;28;20445;-71
2023/04/18 11:48:04;;;;;;;8.77;6.13;;;14.00;92.00;;;;;;5087237;28;20447;-70
2023/04/18 11:50:50;;;;;;;8.10;6.60;;;13.90;94.10;;;;;;5076682;28;20486;-71
2023/04/18 11:53:37;;;;;;;8.50;6.23;;;13.80;94.80;;;;;;5078687;28;20454;-71
2023/04/18 11:56:23;;;;;;;7.47;6.00;;;13.70;93.70;;;;;;5084049;28;20454;-71
2023/04/18 11:59:09;;;;;;;7.43;5.90;;;13.60;94.90;;;;;;5085556;28;20423;-70
2023/04/18 12:02:01;;;;;;;7.90;5.93;;;13.60;95.30;;;;;;5080133;28;21060;-70
2023/04/18 12:04:55;;;;;;;6.90;5.40;;;13.60;94.90;;;;;;5076799;28;20422;-70
2023/04/18 12:07:42;;;;;;;6.53;5.57;;;13.60;96.20;;;;;;5085000;28;20656;-70
2023/04/18 12:10:29;;;;;;;7.30;6.30;;;13.60;96.10;;;;;;5085670;28;20549;-70
2023/04/18 12:13:15;;;;;;;6.50;5.47;;;13.60;95.70;;;;;;5088406;28;21034;-70
2023/04/18 12:16:02;;;;;;;6.50;5.57;;;13.70;95.80;;;;;;5081937;28;20445;-70
2023/04/18 12:18:49;;;;;;;7.83;6.47;;;13.70;95.00;;;;;;5083495;28;20501;-70
2023/04/18 12:21:35;;;;;;;8.53;6.50;;;13.70;95.40;;;;;;5079586;28;20458;-70
2023/04/18 12:24:22;;;;;;;6.17;5.57;;;13.60;96.20;;;;;;5083097;28;21010;-70
2023/04/18 12:27:08;;;;;;;9.57;6.50;;;13.70;96.80;;;;;;5080351;28;20507;-70
2023/04/18 12:29:53;;;;;;;8.10;6.20;;;13.60;96.00;;;;;;5078096;28;20822;-70
2023/04/18 12:32:39;;;;;;;10.53;5.73;;;13.60;95.30;;;;;;5078432;28;20553;-70
2023/04/18 12:35:26;;;;;;;7.40;6.13;;;13.60;96.60;;;;;;5086386;28;21258;-70
2023/04/18 12:38:12;;;;;;;5.93;5.07;;;13.70;96.40;;;;;;5079303;28;20928;-70
2023/04/18 12:40:58;;;;;;;6.30;5.27;;;13.70;94.60;;;;;;5082771;28;20448;-70
2023/04/18 12:43:43;;;;;;;6.97;5.10;;;13.70;95.60;;;;;;5087479;28;20437;-70
2023/04/18 12:46:29;;;;;;;6.50;5.73;;;13.80;96.70;;;;;;5079763;28;20530;-70
2023/04/18 12:49:14;;;;;;;7.80;4.27;;;13.90;96.00;;;;;;5079997;28;20509;-70
2023/04/18 12:52:01;;;;;;;8.10;6.07;;;14.00;96.00;;;;;;5083259;28;21012;-70
2023/04/18 12:54:47;;;;;;;7.70;5.53;;;14.00;95.80;;;;;;5084456;28;20622;-70
2023/04/18 12:57:32;;;;;;;10.07;6.10;;;14.10;94.50;;;;;;5081866;28;20882;-71
2023/04/18 13:00:18;;;;;;;10.20;6.23;;;14.10;94.30;;;;;;5080758;28;20552;-71
2023/04/18 13:03:05;;;;;;;7.63;5.00;;;14.20;95.00;;;;;;5081059;28;22334;-70
2023/04/18 13:05:53;;;;;;;7.57;5.50;;;14.30;92.60;;;;;;5079963;28;20431;-71
2023/04/18 13:08:40;;;;;;;7.20;5.60;;;14.30;93.00;;;;;;5079859;28;20448;-71
2023/04/18 13:11:27;;;;;;;5.77;5.17;;;14.30;92.90;;;;;;5084260;28;20443;-72
2023/04/18 13:14:13;;;;;;;6.93;4.63;;;14.20;91.30;;;;;;5084147;28;20475;-70
2023/04/18 13:16:59;;;;;;;5.80;5.10;;;14.20;92.80;;;;;;5083891;28;20946;-72
2023/04/18 13:19:45;;;;;;;5.83;4.80;;;14.20;93.00;;;;;;5082967;28;20952;-71
2023/04/18 13:22:30;;;;;;;5.67;4.40;;;14.30;92.70;;;;;;5083127;28;21047;-71
2023/04/18 13:25:18;;;;;;;6.70;4.57;;;14.40;93.00;;;;;;5084610;28;20666;-71
2023/04/18 13:28:03;;;;;;;7.83;5.40;;;14.40;93.00;;;;;;5078821;28;20450;-70
2023/04/18 13:30:49;;;;;;;6.00;4.97;;;14.40;92.90;;;;;;5084206;28;20432;-71
2023/04/18 13:33:34;;;;;;;7.03;4.87;;;14.40;92.50;;;;;;5083535;28;20472;-71
2023/04/18 13:36:20;;;;;;;5.37;4.63;;;14.40;92.40;;;;;;5080921;28;20423;-70
2023/04/18 13:39:06;;;;;;;8.70;5.90;;;14.40;92.30;;;;;;5081461;28;20448;-71
2023/04/18 13:41:54;;;;;;;16.33;5.03;;;14.40;91.50;;;;;;5087809;28;20421;-71
2023/04/18 13:44:39;;;;;;;8.70;5.37;;;14.40;92.20;;;;;;5084078;28;20477;-71
2023/04/18 13:47:25;;;;;;;6.20;4.80;;;14.40;91.60;;;;;;5072229;28;20452;-70
2023/04/18 13:50:11;;;;;;;7.83;6.10;;;14.40;92.30;;;;;;5083619;28;20439;-71
2023/04/18 13:52:56;;;;;;;8.30;5.90;;;14.40;92.00;;;;;;5087488;28;20534;-70
2023/04/18 13:55:42;;;;;;;6.60;5.90;;;14.40;93.40;;;;;;5084826;28;20450;-71
2023/04/18 13:58:29;;;;;;;5.87;5.27;;;14.50;94.00;;;;;;5083765;28;20506;-71
2023/04/18 14:01:15;;;;;;;6.90;5.40;;;14.50;92.00;;;;;;5088901;28;20519;-70
2023/04/18 14:04:02;;;;;;;7.50;6.10;;;14.50;92.30;;;;;;5091465;28;20445;-71
2023/04/18 14:06:47;;;;;;;8.60;5.70;;;14.60;91.00;;;;;;5083171;28;20545;-71
2023/04/18 14:09:33;;;;;;;5.70;5.10;;;14.70;92.30;;;;;;5083852;28;20697;-71
2023/04/18 14:12:18;;;;;;;8.00;5.70;;;14.90;92.30;;;;;;5081148;28;20419;-70
2023/04/18 14:15:07;;;;;;;5.73;5.10;;;15.20;89.70;;;;;;5082579;28;20521;-70
2023/04/18 14:17:52;;;;;;;10.63;6.30;;;15.30;84.60;;;;;;5085138;28;20488;-71